sensor_id;sensor_type;location;lat;lon;timestamp;pressure;altitude;pressure_sealevel;temperature;humidity
69570;BME280;56781;42.292;23.146;2023-04-26T00:01:59;94682.88;;;6.91;100.00
69570;BME280;56781;42.292;23.146;2023-04-26T00:04:26;94682.28;;;6.94;100.00
69570;BME280;56781;42.292;23.146;2023-04-26T00:06:55;94674.78;;;6.96;100.00
69570;BME280;56781;42.292;23.146;2023-04-26T00:09:22;94649.19;;;6.73;100.00
69570;BME280;56781;42.292;23.146;2023-04-26T00:11:49;94675.59;;;6.69;100.00
69570;BME280;56781;42.292;23.146;2023-04-26T00:14:17;94642.50;;;6.34;100.00
69570;BME280;56781;42.292;23.146;2023-04-26T00:16:44;94660.03;;;6.49;100.00
69570;BME280;56781;42.292;23.146;2023-04-26T00:19:11;94662.22;;;6.47;100.00
69570;BME280;56781;42.292;23.146;2023-04-26T00:21:39;94646.63;;;6.40;100.00
69570;BME280;56781;42.292;23.146;2023-04-26T00:24:06;94642.91;;;6.27;100.00
69570;BME280;56781;42.292;23.146;2023-04-26T00:26:34;94642.28;;;6.16;100.00
69570;BME280;56781;42.292;23.146;2023-04-26T00:29:03;94649.16;;;6.17;100.00
69570;BME280;56781;42.292;23.146;2023-04-26T00:31:30;94648.50;;;6.26;100.00
69570;BME280;56781;42.292;23.146;2023-04-26T00:33:57;94642.09;;;6.27;100.00
69570;BME280;56781;42.292;23.146;2023-04-26T00:36:24;94666.91;;;6.36;100.00
69570;BME280;56781;42.292;23.146;2023-04-26T00:38:52;94644.72;;;6.13;100.00
69570;BME280;56781;42.292;23.146;2023-04-26T00:41:19;94626.69;;;5.96;100.00
69570;BME280;56781;42.292;23.146;2023-04-26T00:43:47;94634.38;;;5.97;100.00
69570;BME280;56781;42.292;23.146;2023-04-26T00:46:15;94635.75;;;5.95;100.00
69570;BME280;56781;42.292;23.146;2023-04-26T00:48:43;94638.56;;;5.85;100.00
69570;BME280;56781;42.292;23.146;2023-04-26T00:51:10;94644.72;;;5.80;100.00
69570;BME280;56781;42.292;23.146;2023-04-26T00:53:38;94656.03;;;5.53;100.00
69570;BME280;56781;42.292;23.146;2023-04-26T00:56:08;94649.19;;;5.14;100.00
69570;BME280;56781;42.292;23.146;2023-04-26T00:58:36;94638.19;;;5.02;100.00
69570;BME280;56781;42.292;23.146;2023-04-26T01:01:03;94641.66;;;5.02;100.00
69570;BME280;56781;42.292;23.146;2023-04-26T01:03:30;94679.72;;;5.30;100.00
69570;BME280;56781;42.292;23.146;2023-04-26T01:05:58;94651.53;;;4.97;100.00
69570;BME280;56781;42.292;23.146;2023-04-26T01:08:25;94681.59;;;5.11;100.00
69570;BME280;56781;42.292;23.146;2023-04-26T01:10:52;94666.59;;;5.01;100.00
69570;BME280;56781;42.292;23.146;2023-04-26T01:13:20;94669.03;;;4.98;100.00
69570;BME280;56781;42.292;23.146;2023-04-26T01:15:47;94660.75;;;4.80;100.00
69570;BME280;56781;42.292;23.146;2023-04-26T01:18:15;94677.66;;;4.84;100.00
69570;BME280;56781;42.292;23.146;2023-04-26T01:20:42;94650.97;;;4.57;100.00
69570;BME280;56781;42.292;23.146;2023-04-26T01:23:09;94650.13;;;4.80;100.00
69570;BME280;56781;42.292;23.146;2023-04-26T01:25:37;94624.75;;;4.74;100.00
69570;BME280;56781;42.292;23.146;2023-04-26T01:28:04;94624.50;;;4.76;100.00
69570;BME280;56781;42.292;23.146;2023-04-26T01:30:32;94617.19;;;4.68;100.00
69570;BME280;56781;42.292;23.146;2023-04-26T01:32:59;94640.72;;;4.26;100.00
69570;BME280;56781;42.292;23.146;2023-04-26T01:35:26;94634.09;;;3.70;100.00
69570;BME280;56781;42.292;23.146;2023-04-26T01:37:53;94625.81;;;3.77;100.00
69570;BME280;56781;42.292;23.146;2023-04-26T01:40:21;94622.72;;;3.99;100.00
69570;BME280;56781;42.292;23.146;2023-04-26T01:42:48;94640.63;;;4.31;100.00
69570;BME280;56781;42.292;23.146;2023-04-26T01:45:15;94656.38;;;4.47;100.00
69570;BME280;56781;42.292;23.146;2023-04-26T01:47:43;94654.28;;;4.43;100.00
69570;BME280;56781;42.292;23.146;2023-04-26T01:50:11;94649.50;;;4.46;100.00
69570;BME280;56781;42.292;23.146;2023-04-26T01:52:38;94665.06;;;4.52;100.00
69570;BME280;56781;42.292;23.146;2023-04-26T01:55:06;94662.13;;;4.54;100.00
69570;BME280;56781;42.292;23.146;2023-04-26T01:57:33;94655.78;;;4.74;100.00
69570;BME280;56781;42.292;23.146;2023-04-26T02:00:00;94652.31;;;4.97;100.00
69570;BME280;56781;42.292;23.146;2023-04-26T02:02:28;94672.97;;;5.19;100.00
69570;BME280;56781;42.292;23.146;2023-04-26T02:04:55;94633.91;;;4.63;100.00
69570;BME280;56781;42.292;23.146;2023-04-26T02:07:22;94616.06;;;4.50;100.00
69570;BME280;56781;42.292;23.146;2023-04-26T02:09:50;94638.94;;;4.64;100.00
69570;BME280;56781;42.292;23.146;2023-04-26T02:12:17;94634.13;;;4.66;100.00
69570;BME280;56781;42.292;23.146;2023-04-26T02:14:44;94626.91;;;4.72;100.00
69570;BME280;56781;42.292;23.146;2023-04-26T02:17:11;94631.31;;;4.58;100.00
69570;BME280;56781;42.292;23.146;2023-04-26T02:19:39;94609.25;;;4.43;100.00
69570;BME280;56781;42.292;23.146;2023-04-26T02:22:06;94616.56;;;4.52;100.00
69570;BME280;56781;42.292;23.146;2023-04-26T02:24:33;94617.50;;;4.61;100.00
69570;BME280;56781;42.292;23.146;2023-04-26T02:27:01;94606.13;;;4.60;100.00
69570;BME280;56781;42.292;23.146;2023-04-26T02:29:29;94593.50;;;4.52;100.00
69570;BME280;56781;42.292;23.146;2023-04-26T02:32:09;94616.78;;;4.55;100.00
69570;BME280;56781;42.292;23.146;2023-04-26T02:34:36;94611.16;;;4.62;100.00
69570;BME280;56781;42.292;23.146;2023-04-26T02:37:03;94637.78;;;4.95;100.00
69570;BME280;56781;42.292;23.146;2023-04-26T02:39:31;94614.47;;;4.92;100.00
69570;BME280;56781;42.292;23.146;2023-04-26T02:41:58;94617.06;;;4.97;100.00
69570;BME280;56781;42.292;23.146;2023-04-26T02:44:29;94602.94;;;5.01;100.00
69570;BME280;56781;42.292;23.146;2023-04-26T02:46:56;94593.59;;;5.04;100.00
69570;BME280;56781;42.292;23.146;2023-04-26T02:49:24;94616.97;;;5.21;100.00
69570;BME280;56781;42.292;23.146;2023-04-26T02:51:51;94618.06;;;5.01;100.00
69570;BME280;56781;42.292;23.146;2023-04-26T02:54:18;94605.16;;;4.94;100.00
69570;BME280;56781;42.292;23.146;2023-04-26T02:56:46;94641.09;;;5.24;100.00
69570;BME280;56781;42.292;23.146;2023-04-26T02:59:13;94638.13;;;5.26;100.00
69570;BME280;56781;42.292;23.146;2023-04-26T03:01:40;94612.94;;;5.23;100.00
69570;BME280;56781;42.292;23.146;2023-04-26T03:04:07;94632.09;;;5.20;100.00
69570;BME280;56781;42.292;23.146;2023-04-26T03:06:35;94611.91;;;5.05;100.00
69570;BME280;56781;42.292;23.146;2023-04-26T03:09:02;94601.16;;;4.97;100.00
69570;BME280;56781;42.292;23.146;2023-04-26T03:11:31;94603.81;;;4.97;100.00
69570;BME280;56781;42.292;23.146;2023-04-26T03:13:58;94598.00;;;4.95;100.00
69570;BME280;56781;42.292;23.146;2023-04-26T03:16:26;94600.72;;;4.89;100.00
69570;BME280;56781;42.292;23.146;2023-04-26T03:18:54;94612.25;;;4.99;100.00
69570;BME280;56781;42.292;23.146;2023-04-26T03:21:21;94600.28;;;4.82;100.00
69570;BME280;56781;42.292;23.146;2023-04-26T03:23:48;94610.88;;;4.82;100.00
69570;BME280;56781;42.292;23.146;2023-04-26T03:26:15;94608.81;;;4.98;100.00
69570;BME280;56781;42.292;23.146;2023-04-26T03:28:42;94629.59;;;5.10;100.00
69570;BME280;56781;42.292;23.146;2023-04-26T03:31:09;94627.09;;;5.00;100.00
69570;BME280;56781;42.292;23.146;2023-04-26T03:33:37;94615.13;;;4.83;100.00
69570;BME280;56781;42.292;23.146;2023-04-26T03:36:04;94645.16;;;4.98;100.00
69570;BME280;56781;42.292;23.146;2023-04-26T03:38:32;94628.22;;;4.94;100.00
69570;BME280;56781;42.292;23.146;2023-04-26T03:40:59;94621.63;;;5.10;100.00
69570;BME280;56781;42.292;23.146;2023-04-26T03:43:27;94612.38;;;4.88;100.00
69570;BME280;56781;42.292;23.146;2023-04-26T03:45:54;94623.88;;;5.03;100.00
69570;BME280;56781;42.292;23.146;2023-04-26T03:48:21;94638.19;;;5.02;100.00
69570;BME280;56781;42.292;23.146;2023-04-26T03:50:48;94629.28;;;4.74;100.00
69570;BME280;56781;42.292;23.146;2023-04-26T03:53:16;94622.47;;;4.68;100.00
69570;BME280;56781;42.292;23.146;2023-04-26T03:55:43;94616.75;;;4.79;100.00
69570;BME280;56781;42.292;23.146;2023-04-26T03:58:11;94633.44;;;4.80;100.00
69570;BME280;56781;42.292;23.146;2023-04-26T04:00:38;94624.19;;;4.77;100.00
69570;BME280;56781;42.292;23.146;2023-04-26T04:03:07;94645.44;;;4.96;100.00
69570;BME280;56781;42.292;23.146;2023-04-26T04:05:34;94649.94;;;4.96;100.00
69570;BME280;56781;42.292;23.146;2023-04-26T04:08:01;94624.38;;;5.05;100.00
69570;BME280;56781;42.292;23.146;2023-04-26T04:10:29;94634.69;;;5.25;100.00
69570;BME280;56781;42.292;23.146;2023-04-26T04:12:56;94655.25;;;5.52;100.00
69570;BME280;56781;42.292;23.146;2023-04-26T04:15:23;94632.28;;;5.43;100.00
69570;BME280;56781;42.292;23.146;2023-04-26T04:17:51;94637.53;;;5.48;100.00
69570;BME280;56781;42.292;23.146;2023-04-26T04:20:18;94670.97;;;5.49;100.00
69570;BME280;56781;42.292;23.146;2023-04-26T04:22:47;94646.66;;;5.23;100.00
69570;BME280;56781;42.292;23.146;2023-04-26T04:25:14;94647.44;;;5.23;100.00
69570;BME280;56781;42.292;23.146;2023-04-26T04:27:42;94669.03;;;5.36;100.00
69570;BME280;56781;42.292;23.146;2023-04-26T04:30:09;94645.66;;;5.38;100.00
69570;BME280;56781;42.292;23.146;2023-04-26T04:32:38;94647.22;;;5.58;100.00
69570;BME280;56781;42.292;23.146;2023-04-26T04:35:06;94659.38;;;5.77;100.00
69570;BME280;56781;42.292;23.146;2023-04-26T04:37:33;94646.31;;;5.81;100.00
69570;BME280;56781;42.292;23.146;2023-04-26T04:40:00;94670.00;;;6.10;100.00
69570;BME280;56781;42.292;23.146;2023-04-26T04:42:27;94657.97;;;5.99;100.00
69570;BME280;56781;42.292;23.146;2023-04-26T04:44:55;94653.81;;;5.93;100.00
69570;BME280;56781;42.292;23.146;2023-04-26T04:47:22;94666.69;;;6.18;100.00
69570;BME280;56781;42.292;23.146;2023-04-26T04:49:55;94672.69;;;6.24;100.00
69570;BME280;56781;42.292;23.146;2023-04-26T04:52:26;94650.34;;;6.11;100.00
69570;BME280;56781;42.292;23.146;2023-04-26T04:54:54;94643.06;;;6.03;100.00
69570;BME280;56781;42.292;23.146;2023-04-26T04:57:25;94661.78;;;6.26;100.00
69570;BME280;56781;42.292;23.146;2023-04-26T04:59:55;94665.91;;;6.32;100.00
69570;BME280;56781;42.292;23.146;2023-04-26T05:02:23;94647.41;;;6.27;100.00
69570;BME280;56781;42.292;23.146;2023-04-26T05:04:51;94645.25;;;6.29;100.00
69570;BME280;56781;42.292;23.146;2023-04-26T05:07:19;94656.09;;;6.46;100.00
69570;BME280;56781;42.292;23.146;2023-04-26T05:09:46;94669.09;;;6.48;100.00
69570;BME280;56781;42.292;23.146;2023-04-26T05:12:13;94649.19;;;6.31;100.00
69570;BME280;56781;42.292;23.146;2023-04-26T05:14:40;94674.81;;;6.69;100.00
69570;BME280;56781;42.292;23.146;2023-04-26T05:17:07;94637.97;;;6.34;100.00
69570;BME280;56781;42.292;23.146;2023-04-26T05:19:34;94655.09;;;6.42;100.00
69570;BME280;56781;42.292;23.146;2023-04-26T05:22:02;94649.88;;;6.23;100.00
69570;BME280;56781;42.292;23.146;2023-04-26T05:24:30;94658.44;;;6.34;100.00
69570;BME280;56781;42.292;23.146;2023-04-26T05:26:58;94646.94;;;6.52;100.00
69570;BME280;56781;42.292;23.146;2023-04-26T05:29:29;94649.78;;;6.83;100.00
69570;BME280;56781;42.292;23.146;2023-04-26T05:31:56;94648.75;;;7.07;100.00
69570;BME280;56781;42.292;23.146;2023-04-26T05:34:24;94650.00;;;7.23;100.00
69570;BME280;56781;42.292;23.146;2023-04-26T05:36:51;94671.16;;;7.42;100.00
69570;BME280;56781;42.292;23.146;2023-04-26T05:39:18;94648.44;;;7.22;100.00
69570;BME280;56781;42.292;23.146;2023-04-26T05:41:46;94672.78;;;7.16;100.00
69570;BME280;56781;42.292;23.146;2023-04-26T05:44:13;94674.03;;;6.82;100.00
69570;BME280;56781;42.292;23.146;2023-04-26T05:46:41;94654.91;;;6.80;100.00
69570;BME280;56781;42.292;23.146;2023-04-26T05:49:08;94655.31;;;6.73;100.00
69570;BME280;56781;42.292;23.146;2023-04-26T05:51:35;94687.59;;;6.94;100.00
69570;BME280;56781;42.292;23.146;2023-04-26T05:54:02;94675.19;;;6.76;100.00
69570;BME280;56781;42.292;23.146;2023-04-26T05:56:29;94684.56;;;6.87;100.00
69570;BME280;56781;42.292;23.146;2023-04-26T05:58:57;94665.25;;;6.68;100.00
69570;BME280;56781;42.292;23.146;2023-04-26T06:01:24;94658.16;;;6.63;100.00
69570;BME280;56781;42.292;23.146;2023-04-26T06:03:51;94655.09;;;6.70;100.00
69570;BME280;56781;42.292;23.146;2023-04-26T06:06:23;94681.91;;;7.01;100.00
69570;BME280;56781;42.292;23.146;2023-04-26T06:08:51;94672.44;;;7.08;100.00
69570;BME280;56781;42.292;23.146;2023-04-26T06:11:18;94673.53;;;7.30;100.00
69570;BME280;56781;42.292;23.146;2023-04-26T06:13:47;94654.84;;;7.21;100.00
69570;BME280;56781;42.292;23.146;2023-04-26T06:16:15;94640.78;;;7.43;100.00
69570;BME280;56781;42.292;23.146;2023-04-26T06:18:42;94672.03;;;7.74;100.00
69570;BME280;56781;42.292;23.146;2023-04-26T06:21:09;94672.31;;;7.95;100.00
69570;BME280;56781;42.292;23.146;2023-04-26T06:23:37;94645.50;;;7.91;100.00
69570;BME280;56781;42.292;23.146;2023-04-26T06:26:04;94641.50;;;8.03;100.00
69570;BME280;56781;42.292;23.146;2023-04-26T06:28:31;94640.47;;;8.12;100.00
69570;BME280;56781;42.292;23.146;2023-04-26T06:30:58;94661.81;;;8.43;100.00
69570;BME280;56781;42.292;23.146;2023-04-26T06:33:25;94663.47;;;8.62;100.00
69570;BME280;56781;42.292;23.146;2023-04-26T06:35:52;94651.38;;;8.64;100.00
69570;BME280;56781;42.292;23.146;2023-04-26T06:38:20;94678.81;;;8.96;100.00
69570;BME280;56781;42.292;23.146;2023-04-26T06:40:47;94662.03;;;8.96;100.00
69570;BME280;56781;42.292;23.146;2023-04-26T06:43:14;94677.59;;;9.11;100.00
69570;BME280;56781;42.292;23.146;2023-04-26T06:45:41;94681.22;;;9.15;100.00
69570;BME280;56781;42.292;23.146;2023-04-26T06:48:09;94663.28;;;9.07;100.00
69570;BME280;56781;42.292;23.146;2023-04-26T06:50:39;94688.78;;;9.30;100.00
69570;BME280;56781;42.292;23.146;2023-04-26T06:53:06;94691.78;;;9.46;100.00
69570;BME280;56781;42.292;23.146;2023-04-26T06:55:34;94690.84;;;9.51;100.00
69570;BME280;56781;42.292;23.146;2023-04-26T06:58:01;94694.63;;;9.67;100.00
69570;BME280;56781;42.292;23.146;2023-04-26T07:00:28;94679.34;;;9.42;100.00
69570;BME280;56781;42.292;23.146;2023-04-26T07:02:56;94687.38;;;9.42;100.00
69570;BME280;56781;42.292;23.146;2023-04-26T07:05:23;94682.34;;;9.23;100.00
69570;BME280;56781;42.292;23.146;2023-04-26T07:07:51;94702.16;;;9.48;100.00
69570;BME280;56781;42.292;23.146;2023-04-26T07:10:18;94705.13;;;9.55;100.00
69570;BME280;56781;42.292;23.146;2023-04-26T07:12:46;94706.41;;;9.49;100.00
69570;BME280;56781;42.292;23.146;2023-04-26T07:15:14;94719.59;;;9.37;100.00
69570;BME280;56781;42.292;23.146;2023-04-26T07:17:41;94724.59;;;9.29;100.00
69570;BME280;56781;42.292;23.146;2023-04-26T07:20:09;94724.94;;;9.37;100.00
69570;BME280;56781;42.292;23.146;2023-04-26T07:22:36;94707.94;;;9.24;100.00
69570;BME280;56781;42.292;23.146;2023-04-26T07:25:03;94734.09;;;9.53;100.00
69570;BME280;56781;42.292;23.146;2023-04-26T07:27:31;94735.66;;;9.71;100.00
69570;BME280;56781;42.292;23.146;2023-04-26T07:29:58;94732.69;;;9.73;100.00
69570;BME280;56781;42.292;23.146;2023-04-26T07:32:25;94729.38;;;9.67;100.00
69570;BME280;56781;42.292;23.146;2023-04-26T07:34:52;94709.72;;;9.63;100.00
69570;BME280;56781;42.292;23.146;2023-04-26T07:37:20;94740.53;;;9.78;100.00
69570;BME280;56781;42.292;23.146;2023-04-26T07:39:47;94742.44;;;9.77;100.00
69570;BME280;56781;42.292;23.146;2023-04-26T07:42:14;94728.59;;;9.93;100.00
69570;BME280;56781;42.292;23.146;2023-04-26T07:44:42;94748.41;;;10.09;100.00
69570;BME280;56781;42.292;23.146;2023-04-26T07:47:12;94736.63;;;10.28;100.00
69570;BME280;56781;42.292;23.146;2023-04-26T07:49:40;94738.22;;;10.29;100.00
69570;BME280;56781;42.292;23.146;2023-04-26T07:52:08;94745.09;;;10.47;100.00
69570;BME280;56781;42.292;23.146;2023-04-26T07:54:35;94740.66;;;10.60;100.00
69570;BME280;56781;42.292;23.146;2023-04-26T07:57:02;94727.78;;;10.53;100.00
69570;BME280;56781;42.292;23.146;2023-04-26T07:59:30;94726.31;;;10.64;100.00
69570;BME280;56781;42.292;23.146;2023-04-26T08:01:57;94730.22;;;10.76;100.00
69570;BME280;56781;42.292;23.146;2023-04-26T08:04:32;94733.94;;;10.92;100.00
69570;BME280;56781;42.292;23.146;2023-04-26T08:07:00;94735.34;;;10.98;100.00
69570;BME280;56781;42.292;23.146;2023-04-26T08:09:28;94754.84;;;11.37;100.00
69570;BME280;56781;42.292;23.146;2023-04-26T08:11:56;94752.22;;;11.28;100.00
69570;BME280;56781;42.292;23.146;2023-04-26T08:14:24;94731.78;;;11.24;100.00
69570;BME280;56781;42.292;23.146;2023-04-26T08:16:51;94736.34;;;11.74;100.00
69570;BME280;56781;42.292;23.146;2023-04-26T08:19:18;94739.97;;;11.78;100.00
69570;BME280;56781;42.292;23.146;2023-04-26T08:21:45;94765.25;;;11.98;100.00
69570;BME280;56781;42.292;23.146;2023-04-26T08:24:13;94738.59;;;12.14;100.00
69570;BME280;56781;42.292;23.146;2023-04-26T08:26:40;94728.56;;;12.23;100.00
69570;BME280;56781;42.292;23.146;2023-04-26T08:29:07;94735.59;;;12.15;99.26
69570;BME280;56781;42.292;23.146;2023-04-26T08:31:34;94757.56;;;11.88;97.18
69570;BME280;56781;42.292;23.146;2023-04-26T08:34:01;94753.66;;;12.27;98.01
69570;BME280;56781;42.292;23.146;2023-04-26T08:36:29;94755.97;;;12.50;91.86
69570;BME280;56781;42.292;23.146;2023-04-26T08:38:58;94742.94;;;12.06;96.63
69570;BME280;56781;42.292;23.146;2023-04-26T08:41:26;94729.69;;;11.80;90.67
69570;BME280;56781;42.292;23.146;2023-04-26T08:43:54;94709.09;;;12.47;92.99
69570;BME280;56781;42.292;23.146;2023-04-26T08:46:25;94733.63;;;12.58;86.27
69570;BME280;56781;42.292;23.146;2023-04-26T08:49:08;94736.44;;;13.32;84.05
69570;BME280;56781;42.292;23.146;2023-04-26T08:51:39;94727.00;;;13.62;82.29
69570;BME280;56781;42.292;23.146;2023-04-26T08:54:08;94752.09;;;13.54;79.11
69570;BME280;56781;42.292;23.146;2023-04-26T08:56:37;94747.69;;;14.27;80.88
69570;BME280;56781;42.292;23.146;2023-04-26T08:59:05;94739.44;;;13.79;75.52
69570;BME280;56781;42.292;23.146;2023-04-26T09:01:32;94745.06;;;14.14;74.17
69570;BME280;56781;42.292;23.146;2023-04-26T09:04:00;94743.94;;;13.63;72.60
69570;BME280;56781;42.292;23.146;2023-04-26T09:06:28;94715.13;;;13.51;71.47
69570;BME280;56781;42.292;23.146;2023-04-26T09:08:55;94732.72;;;14.13;75.75
69570;BME280;56781;42.292;23.146;2023-04-26T09:11:23;94709.53;;;12.95;74.83
69570;BME280;56781;42.292;23.146;2023-04-26T09:13:51;94734.28;;;13.13;70.75
69570;BME280;56781;42.292;23.146;2023-04-26T09:16:18;94711.84;;;13.82;70.56
69570;BME280;56781;42.292;23.146;2023-04-26T09:18:48;94724.06;;;13.80;67.85
69570;BME280;56781;42.292;23.146;2023-04-26T09:21:17;94716.00;;;14.20;67.85
69570;BME280;56781;42.292;23.146;2023-04-26T09:24:01;94719.75;;;14.31;72.29
69570;BME280;56781;42.292;23.146;2023-04-26T09:26:32;94726.38;;;14.34;71.75
69570;BME280;56781;42.292;23.146;2023-04-26T09:29:26;94676.03;;;13.94;69.19
69570;BME280;56781;42.292;23.146;2023-04-26T09:31:53;94709.00;;;13.38;69.31
69570;BME280;56781;42.292;23.146;2023-04-26T09:34:20;94723.09;;;13.23;74.93
69570;BME280;56781;42.292;23.146;2023-04-26T09:36:52;94714.19;;;12.85;73.94
69570;BME280;56781;42.292;23.146;2023-04-26T09:39:34;94733.00;;;12.73;80.85
69570;BME280;56781;42.292;23.146;2023-04-26T09:42:03;94709.03;;;12.02;74.87
69570;BME280;56781;42.292;23.146;2023-04-26T09:44:34;94699.59;;;11.74;75.11
69570;BME280;56781;42.292;23.146;2023-04-26T09:47:02;94727.00;;;12.22;71.15
69570;BME280;56781;42.292;23.146;2023-04-26T09:49:50;94731.53;;;12.09;77.19
69570;BME280;56781;42.292;23.146;2023-04-26T09:52:18;94704.44;;;11.81;70.40
69570;BME280;56781;42.292;23.146;2023-04-26T09:54:52;94721.06;;;11.95;73.20
69570;BME280;56781;42.292;23.146;2023-04-26T09:57:20;94709.88;;;11.93;75.00
69570;BME280;56781;42.292;23.146;2023-04-26T09:59:50;94700.16;;;11.89;72.65
69570;BME280;56781;42.292;23.146;2023-04-26T10:02:25;94713.50;;;11.97;71.91
69570;BME280;56781;42.292;23.146;2023-04-26T10:04:55;94698.03;;;12.15;73.23
69570;BME280;56781;42.292;23.146;2023-04-26T10:07:24;94708.78;;;11.94;70.43
69570;BME280;56781;42.292;23.146;2023-04-26T10:09:52;94714.41;;;12.02;71.89
69570;BME280;56781;42.292;23.146;2023-04-26T10:12:21;94700.66;;;12.24;71.04
69570;BME280;56781;42.292;23.146;2023-04-26T10:14:48;94681.34;;;12.10;73.49
69570;BME280;56781;42.292;23.146;2023-04-26T10:17:18;94705.28;;;12.15;73.83
69570;BME280;56781;42.292;23.146;2023-04-26T10:19:47;94683.91;;;12.06;68.13
69570;BME280;56781;42.292;23.146;2023-04-26T10:22:21;94674.63;;;12.04;67.45
69570;BME280;56781;42.292;23.146;2023-04-26T10:24:50;94701.50;;;12.49;71.99
69570;BME280;56781;42.292;23.146;2023-04-26T10:30:14;94670.16;;;12.41;71.79
69570;BME280;56781;42.292;23.146;2023-04-26T10:33:09;94680.91;;;12.53;72.07
69570;BME280;56781;42.292;23.146;2023-04-26T10:36:04;94689.38;;;13.01;70.40
69570;BME280;56781;42.292;23.146;2023-04-26T10:38:33;94669.06;;;12.67;66.68
69570;BME280;56781;42.292;23.146;2023-04-26T10:43:58;94684.22;;;12.96;64.19
69570;BME280;56781;42.292;23.146;2023-04-26T10:46:36;94669.56;;;13.55;69.17
69570;BME280;56781;42.292;23.146;2023-04-26T10:49:18;94691.47;;;13.69;65.19
69570;BME280;56781;42.292;23.146;2023-04-26T10:52:11;94673.44;;;13.69;68.12
69570;BME280;56781;42.292;23.146;2023-04-26T10:54:49;94675.06;;;13.34;65.48
69570;BME280;56781;42.292;23.146;2023-04-26T10:57:16;94685.78;;;12.97;68.08
69570;BME280;56781;42.292;23.146;2023-04-26T11:05:47;94669.88;;;12.92;62.61
69570;BME280;56781;42.292;23.146;2023-04-26T11:08:26;94687.94;;;13.03;69.05
69570;BME280;56781;42.292;23.146;2023-04-26T11:11:08;94677.69;;;12.72;65.16
69570;BME280;56781;42.292;23.146;2023-04-26T11:13:37;94678.28;;;12.90;65.96
69570;BME280;56781;42.292;23.146;2023-04-26T11:16:08;94656.34;;;12.76;69.31
69570;BME280;56781;42.292;23.146;2023-04-26T11:18:39;94677.03;;;12.75;71.76
69570;BME280;56781;42.292;23.146;2023-04-26T11:21:08;94679.00;;;12.08;68.31
69570;BME280;56781;42.292;23.146;2023-04-26T11:23:35;94687.72;;;12.05;71.29
69570;BME280;56781;42.292;23.146;2023-04-26T11:26:04;94673.81;;;11.82;68.25
69570;BME280;56781;42.292;23.146;2023-04-26T11:28:33;94698.75;;;12.04;70.82
69570;BME280;56781;42.292;23.146;2023-04-26T11:31:02;94674.25;;;11.93;69.77
69570;BME280;56781;42.292;23.146;2023-04-26T11:33:30;94692.44;;;11.87;73.53
69570;BME280;56781;42.292;23.146;2023-04-26T11:36:01;94684.09;;;11.80;69.41
69570;BME280;56781;42.292;23.146;2023-04-26T11:38:29;94697.75;;;11.66;67.36
69570;BME280;56781;42.292;23.146;2023-04-26T11:41:01;94671.88;;;11.70;66.21
69570;BME280;56781;42.292;23.146;2023-04-26T11:43:34;94684.94;;;11.72;68.73
69570;BME280;56781;42.292;23.146;2023-04-26T11:46:07;94664.41;;;11.55;67.13
69570;BME280;56781;42.292;23.146;2023-04-26T11:48:36;94676.00;;;11.68;70.52
69570;BME280;56781;42.292;23.146;2023-04-26T11:51:04;94690.44;;;11.75;72.19
69570;BME280;56781;42.292;23.146;2023-04-26T11:53:40;94712.34;;;11.77;72.61
69570;BME280;56781;42.292;23.146;2023-04-26T11:56:15;94689.03;;;11.78;71.07
69570;BME280;56781;42.292;23.146;2023-04-26T11:58:44;94720.81;;;12.09;76.21
69570;BME280;56781;42.292;23.146;2023-04-26T12:01:22;94730.84;;;11.49;78.84
69570;BME280;56781;42.292;23.146;2023-04-26T12:03:54;94697.00;;;11.06;81.84
69570;BME280;56781;42.292;23.146;2023-04-26T12:06:29;94717.34;;;11.07;81.14
69570;BME280;56781;42.292;23.146;2023-04-26T12:08:56;94692.56;;;10.81;81.22
69570;BME280;56781;42.292;23.146;2023-04-26T12:11:23;94704.50;;;10.92;78.60
69570;BME280;56781;42.292;23.146;2023-04-26T12:13:50;94728.16;;;11.20;82.98
69570;BME280;56781;42.292;23.146;2023-04-26T12:16:18;94705.00;;;11.15;81.98
69570;BME280;56781;42.292;23.146;2023-04-26T12:18:53;94710.59;;;11.01;75.13
69570;BME280;56781;42.292;23.146;2023-04-26T12:21:21;94704.38;;;11.18;69.00
69570;BME280;56781;42.292;23.146;2023-04-26T12:23:49;94704.03;;;11.20;68.59
69570;BME280;56781;42.292;23.146;2023-04-26T12:26:16;94709.09;;;11.42;68.50
69570;BME280;56781;42.292;23.146;2023-04-26T12:28:44;94695.34;;;11.23;70.30
69570;BME280;56781;42.292;23.146;2023-04-26T12:31:11;94692.13;;;11.38;70.40
69570;BME280;56781;42.292;23.146;2023-04-26T12:33:39;94695.34;;;11.52;75.42
69570;BME280;56781;42.292;23.146;2023-04-26T12:36:09;94709.66;;;11.57;66.72
69570;BME280;56781;42.292;23.146;2023-04-26T12:38:37;94709.75;;;11.39;67.76
69570;BME280;56781;42.292;23.146;2023-04-26T12:41:05;94711.06;;;11.33;68.66
69570;BME280;56781;42.292;23.146;2023-04-26T12:43:32;94708.94;;;11.18;75.16
69570;BME280;56781;42.292;23.146;2023-04-26T12:46:00;94714.34;;;11.09;80.17
69570;BME280;56781;42.292;23.146;2023-04-26T12:48:27;94692.41;;;10.86;83.18
69570;BME280;56781;42.292;23.146;2023-04-26T12:50:54;94729.09;;;10.77;81.37
69570;BME280;56781;42.292;23.146;2023-04-26T12:53:22;94711.97;;;10.78;81.84
69570;BME280;56781;42.292;23.146;2023-04-26T12:55:49;94698.41;;;10.83;82.51
69570;BME280;56781;42.292;23.146;2023-04-26T12:58:16;94707.00;;;10.97;81.44
69570;BME280;56781;42.292;23.146;2023-04-26T13:00:44;94713.38;;;11.14;83.06
69570;BME280;56781;42.292;23.146;2023-04-26T13:03:11;94719.19;;;11.45;77.17
69570;BME280;56781;42.292;23.146;2023-04-26T13:05:40;94708.91;;;11.47;77.91
69570;BME280;56781;42.292;23.146;2023-04-26T13:08:08;94696.28;;;11.27;77.59
69570;BME280;56781;42.292;23.146;2023-04-26T13:10:35;94721.09;;;11.66;76.16